createdAt,value
2018-06-28T00:00:14.486Z,15.70
2018-06-28T00:02:42.890Z,15.70
2018-06-28T00:05:11.341Z,15.70
2018-06-28T00:07:39.802Z,15.60
2018-06-28T00:10:08.251Z,15.60
2018-06-28T00:12:36.786Z,15.70
2018-06-28T00:15:05.571Z,15.60
2018-06-28T00:17:33.980Z,15.60
2018-06-28T00:22:30.580Z,15.50
2018-06-28T00:24:59.015Z,15.50
2018-06-28T00:27:27.437Z,15.50
2018-06-28T00:29:55.918Z,15.50
2018-06-28T00:32:24.355Z,15.40
2018-06-28T00:34:52.838Z,15.30
2018-06-28T00:37:21.286Z,15.40
2018-06-28T00:39:49.745Z,15.30
2018-06-28T00:42:18.178Z,15.30
2018-06-28T00:44:46.641Z,15.20
2018-06-28T00:49:43.225Z,15.20
2018-06-28T00:52:11.707Z,15.20
2018-06-28T00:54:40.162Z,15.30
2018-06-28T00:59:36.754Z,15.30
2018-06-28T01:02:05.241Z,15.30
2018-06-28T01:04:33.682Z,15.20
2018-06-28T01:07:02.171Z,15.20
2018-06-28T01:09:30.610Z,15.20
2018-06-28T01:11:59.101Z,15.10
2018-06-28T01:14:27.555Z,15.10
2018-06-28T01:16:56.017Z,15.10
2018-06-28T01:19:24.466Z,15.10
2018-06-28T01:21:52.909Z,15.10
2018-06-28T01:24:21.519Z,15.10
2018-06-28T01:26:49.985Z,15.10
2018-06-28T01:29:18.475Z,15.10
2018-06-28T01:31:46.937Z,15.10
2018-06-28T01:34:15.422Z,15.10
2018-06-28T01:36:43.857Z,15.00
2018-06-28T01:39:12.633Z,15.00
2018-06-28T01:41:52.970Z,14.90
2018-06-28T01:44:21.441Z,14.80
2018-06-28T01:49:18.051Z,14.70
2018-06-28T01:51:46.449Z,14.80
2018-06-28T01:54:14.921Z,14.80
2018-06-28T01:56:43.341Z,14.80
2018-06-28T01:59:11.767Z,14.70
2018-06-28T02:01:40.198Z,14.70
2018-06-28T02:04:08.661Z,14.70
2018-06-28T02:06:37.088Z,14.60
2018-06-28T02:09:08.145Z,14.70
2018-06-28T02:11:36.610Z,14.60
2018-06-28T02:14:05.091Z,14.50
2018-06-28T02:16:33.542Z,14.50
2018-06-28T02:19:01.994Z,14.50
2018-06-28T02:21:30.449Z,14.50
2018-06-28T02:23:58.914Z,14.40
2018-06-28T02:26:27.366Z,14.40
2018-06-28T02:28:55.826Z,14.40
2018-06-28T02:33:52.462Z,14.30
2018-06-28T02:36:20.901Z,14.20
2018-06-28T02:38:49.333Z,14.10
2018-06-28T02:41:17.790Z,14.20
2018-06-28T02:43:46.231Z,14.10
2018-06-28T02:46:14.702Z,14.10
2018-06-28T02:48:43.463Z,14.00
2018-06-28T02:51:11.926Z,14.00
2018-06-28T02:53:40.352Z,14.00
2018-06-28T02:56:08.814Z,14.00
2018-06-28T02:58:37.268Z,13.90
2018-06-28T03:01:05.714Z,13.90
2018-06-28T03:03:34.145Z,13.80
2018-06-28T03:08:30.906Z,13.70
2018-06-28T03:13:27.502Z,13.60
2018-06-28T03:15:55.972Z,13.60
2018-06-28T03:18:25.287Z,13.60
2018-06-28T03:20:53.730Z,13.50
2018-06-28T03:23:22.200Z,13.50
2018-06-28T03:25:50.649Z,13.50
2018-06-28T03:28:19.122Z,13.40
2018-06-28T03:30:47.634Z,13.40
2018-06-28T03:33:16.029Z,13.50
2018-06-28T03:35:44.474Z,13.50
2018-06-28T03:38:12.922Z,13.50
2018-06-28T03:40:41.371Z,13.50
2018-06-28T03:43:09.869Z,13.50
2018-06-28T03:45:38.301Z,13.50
2018-06-28T03:48:06.787Z,13.40
2018-06-28T03:50:35.223Z,13.50
2018-06-28T03:53:03.706Z,13.50
2018-06-28T03:55:32.153Z,13.50
2018-06-28T03:58:00.603Z,13.60
2018-06-28T04:00:29.068Z,13.60
2018-06-28T04:02:57.786Z,13.60
2018-06-28T04:05:26.544Z,13.60
2018-06-28T04:07:54.978Z,13.70
2018-06-28T04:10:23.433Z,13.80
2018-06-28T04:12:51.893Z,13.80
2018-06-28T04:15:20.607Z,13.90
2018-06-28T04:17:49.051Z,14.00
2018-06-28T04:20:17.509Z,14.10
2018-06-28T04:22:45.945Z,14.10
2018-06-28T04:25:14.419Z,14.20
2018-06-28T04:27:42.875Z,14.30
2018-06-28T04:30:11.355Z,14.30
2018-06-28T04:32:39.789Z,14.30
2018-06-28T04:35:08.262Z,14.30
2018-06-28T04:37:36.696Z,14.40
2018-06-28T04:40:05.152Z,14.40
2018-06-28T04:42:33.595Z,14.40
2018-06-28T04:45:02.074Z,14.40
2018-06-28T04:47:30.493Z,14.50
2018-06-28T04:49:58.914Z,14.50
2018-06-28T04:52:27.379Z,14.60
2018-06-28T04:54:55.806Z,14.70
2018-06-28T04:57:24.256Z,14.90
2018-06-28T04:59:52.696Z,15.00
2018-06-28T05:02:21.158Z,15.10
2018-06-28T05:04:49.595Z,15.20
2018-06-28T05:07:18.037Z,15.30
2018-06-28T05:09:46.461Z,15.40
2018-06-28T05:12:14.945Z,15.50
2018-06-28T05:14:43.402Z,15.60
2018-06-28T05:19:40.055Z,15.80
2018-06-28T05:22:08.486Z,15.90
2018-06-28T05:24:36.964Z,16.00
2018-06-28T05:27:05.672Z,16.10
2018-06-28T05:29:34.161Z,16.10
2018-06-28T05:32:02.617Z,16.10
2018-06-28T05:34:31.095Z,16.20
2018-06-28T05:36:59.529Z,16.30
2018-06-28T05:39:27.974Z,16.40
2018-06-28T05:41:56.422Z,16.50
2018-06-28T05:44:24.914Z,16.60
2018-06-28T05:46:53.368Z,16.70
2018-06-28T05:49:21.872Z,16.80
2018-06-28T05:51:50.277Z,16.90
2018-06-28T05:54:18.798Z,16.90
2018-06-28T05:56:47.249Z,17.00
2018-06-28T06:01:43.891Z,17.30
2018-06-28T06:04:12.358Z,17.30
2018-06-28T06:06:40.806Z,17.30
2018-06-28T06:09:10.706Z,17.40
2018-06-28T06:11:39.158Z,17.60
2018-06-28T06:14:07.877Z,17.70
2018-06-28T06:16:36.969Z,17.80
2018-06-28T06:19:05.701Z,18.00
2018-06-28T06:21:34.295Z,18.10
2018-06-28T06:24:02.813Z,18.10
2018-06-28T06:26:31.274Z,18.20
2018-06-28T06:31:27.907Z,18.40
2018-06-28T06:33:56.485Z,18.50
2018-06-28T06:36:24.985Z,18.50
2018-06-28T06:38:53.458Z,18.60
2018-06-28T06:41:22.034Z,18.70
2018-06-28T06:43:50.533Z,18.80
2018-06-28T06:46:18.994Z,18.90
2018-06-28T06:48:47.477Z,19.00
2018-06-28T06:51:15.941Z,19.10
2018-06-28T06:53:44.382Z,19.20
2018-06-28T06:56:12.848Z,19.40
2018-06-28T06:58:41.322Z,19.50
2018-06-28T07:01:09.753Z,19.60
2018-06-28T07:03:38.258Z,19.50
2018-06-28T07:06:06.696Z,19.60
2018-06-28T07:08:35.222Z,19.70
2018-06-28T07:11:03.719Z,19.70
2018-06-28T07:16:00.427Z,19.80
2018-06-28T07:18:28.838Z,20.00
2018-06-28T07:20:57.290Z,20.10
2018-06-28T07:23:25.778Z,20.20
2018-06-28T07:25:54.252Z,20.20
2018-06-28T07:28:22.814Z,20.30
2018-06-28T07:30:51.204Z,20.50
2018-06-28T07:33:19.657Z,20.50
2018-06-28T07:35:48.106Z,20.50
2018-06-28T07:40:44.732Z,20.50
2018-06-28T07:43:13.214Z,20.60
2018-06-28T07:45:41.680Z,20.50
2018-06-28T07:48:10.142Z,20.70
2018-06-28T07:50:38.587Z,21.00
2018-06-28T07:53:07.062Z,21.00
2018-06-28T07:55:35.533Z,21.20
2018-06-28T07:58:04.029Z,21.30
2018-06-28T08:00:32.465Z,21.40
2018-06-28T08:03:00.898Z,21.50
2018-06-28T08:05:29.521Z,21.60
2018-06-28T08:07:57.958Z,21.60
2018-06-28T08:10:26.437Z,21.50
2018-06-28T08:12:54.901Z,21.50
2018-06-28T08:17:51.539Z,21.80
2018-06-28T08:20:20.008Z,21.90
2018-06-28T08:22:48.477Z,22.10
2018-06-28T08:25:17.042Z,22.20
2018-06-28T08:27:45.534Z,22.40
2018-06-28T08:30:13.994Z,22.50
2018-06-28T08:32:42.442Z,22.70
2018-06-28T08:37:39.041Z,22.50
2018-06-28T08:40:07.529Z,22.50
2018-06-28T08:42:35.982Z,22.50
2018-06-28T08:45:04.582Z,22.60
2018-06-28T08:47:33.037Z,22.80
2018-06-28T08:50:01.488Z,22.90
2018-06-28T08:52:30.305Z,22.90
2018-06-28T08:54:58.798Z,22.90
2018-06-28T08:57:27.301Z,22.50
2018-06-28T08:59:55.755Z,22.90
2018-06-28T09:02:24.293Z,23.20
2018-06-28T09:04:52.737Z,22.90
2018-06-28T09:07:21.222Z,23.30
2018-06-28T09:09:49.684Z,23.50
2018-06-28T09:12:18.221Z,23.50
2018-06-28T09:14:46.702Z,23.40
2018-06-28T09:17:15.151Z,23.40
2018-06-28T09:19:43.614Z,23.70
2018-06-28T09:22:12.094Z,24.00
2018-06-28T09:24:40.575Z,24.20
2018-06-28T09:27:09.079Z,24.20
2018-06-28T09:29:37.585Z,24.50
2018-06-28T09:32:06.069Z,24.50
2018-06-28T09:34:34.518Z,23.70
2018-06-28T09:37:02.994Z,23.80
2018-06-28T09:39:31.449Z,23.80
2018-06-28T09:41:59.899Z,24.00
2018-06-28T09:46:56.487Z,24.10
2018-06-28T09:49:24.969Z,24.20
2018-06-28T09:51:53.404Z,24.50
2018-06-28T09:54:21.861Z,24.60
2018-06-28T09:56:50.321Z,24.70
2018-06-28T09:59:18.834Z,25.00
2018-06-28T10:01:47.278Z,25.50
2018-06-28T10:04:15.778Z,25.50
2018-06-28T10:06:44.248Z,25.40
2018-06-28T10:09:12.714Z,25.30
2018-06-28T10:11:41.239Z,24.70
2018-06-28T10:14:09.736Z,25.10
2018-06-28T10:19:06.367Z,26.00
2018-06-28T10:21:34.842Z,26.20
2018-06-28T10:24:03.310Z,26.50
2018-06-28T10:26:31.769Z,27.30
2018-06-28T10:29:00.245Z,28.00
2018-06-28T10:31:28.750Z,28.30
2018-06-28T10:33:57.164Z,28.60
2018-06-28T10:38:53.773Z,27.10
2018-06-28T10:41:22.281Z,27.70
2018-06-28T10:43:50.713Z,28.00
2018-06-28T10:46:19.171Z,28.50
2018-06-28T10:48:47.643Z,28.60
2018-06-28T10:56:12.369Z,29.20
2018-06-28T10:58:40.840Z,28.90
2018-06-28T11:03:37.457Z,29.60
2018-06-28T11:06:05.914Z,29.80
2018-06-28T11:08:34.378Z,30.60
2018-06-28T11:11:02.857Z,29.90
2018-06-28T11:13:31.313Z,29.70
2018-06-28T11:18:27.949Z,30.70
2018-06-28T11:20:56.386Z,30.60
2018-06-28T11:23:24.878Z,30.00
2018-06-28T11:25:53.339Z,29.80
2018-06-28T11:28:21.851Z,30.30
2018-06-28T11:30:50.300Z,29.70
2018-06-28T11:33:18.753Z,29.60
2018-06-28T11:35:47.205Z,28.20
2018-06-28T11:38:15.689Z,28.50
2018-06-28T11:40:44.123Z,28.10
2018-06-28T11:43:12.607Z,29.30
2018-06-28T11:45:41.054Z,29.20
2018-06-28T11:50:37.654Z,28.10
2018-06-28T11:53:06.097Z,28.50
2018-06-28T11:55:34.702Z,28.50
2018-06-28T11:58:03.134Z,28.30
2018-06-28T12:00:31.608Z,28.60
2018-06-28T12:03:00.050Z,29.20
2018-06-28T12:05:28.548Z,28.80
2018-06-28T12:07:56.978Z,29.30
2018-06-28T12:10:25.473Z,28.80
2018-06-28T12:12:53.930Z,29.00
2018-06-28T12:15:22.485Z,28.00
2018-06-28T12:17:50.905Z,28.10
2018-06-28T12:20:19.389Z,28.30
2018-06-28T12:22:47.840Z,29.00
2018-06-28T12:27:44.473Z,28.60
2018-06-28T12:30:13.055Z,28.60
2018-06-28T12:32:41.521Z,29.60
2018-06-28T12:35:09.990Z,30.00
2018-06-28T12:37:38.444Z,29.90
2018-06-28T12:40:06.909Z,29.10
2018-06-28T12:42:35.377Z,29.30
2018-06-28T12:45:05.487Z,30.00
2018-06-28T12:50:09.480Z,28.80
2018-06-28T12:52:44.500Z,28.30
2018-06-28T12:55:14.586Z,27.60
2018-06-28T12:57:43.132Z,27.80
2018-06-28T13:00:11.850Z,28.20
2018-06-28T13:02:40.469Z,28.40
2018-06-28T13:05:09.074Z,29.00
2018-06-28T13:07:37.598Z,28.90
2018-06-28T13:12:34.770Z,29.40
2018-06-28T13:15:03.253Z,29.80
2018-06-28T13:17:31.714Z,29.60
2018-06-28T13:22:28.440Z,30.90
2018-06-28T13:24:57.896Z,31.00
2018-06-28T13:27:26.378Z,30.80
2018-06-28T13:29:54.881Z,29.20
2018-06-28T13:32:23.353Z,28.50
2018-06-28T13:34:51.817Z,28.90
2018-06-28T13:37:20.330Z,28.80
2018-06-28T13:39:48.814Z,28.40
2018-06-28T13:42:17.411Z,29.50
2018-06-28T13:44:45.743Z,30.80
2018-06-28T13:47:14.212Z,32.50
2018-06-28T13:49:42.693Z,33.50
2018-06-28T13:52:11.138Z,33.40
2018-06-28T13:54:39.582Z,33.80
2018-06-28T13:57:08.054Z,33.30
2018-06-28T13:59:36.533Z,33.60
2018-06-28T14:02:05.014Z,33.90
2018-06-28T14:04:33.455Z,33.60
2018-06-28T14:09:30.046Z,33.60
2018-06-28T14:11:58.517Z,32.10
2018-06-28T14:14:26.981Z,30.70
2018-06-28T14:16:55.436Z,29.20
2018-06-28T14:19:23.869Z,28.60
2018-06-28T14:21:52.321Z,27.70
2018-06-28T14:24:20.791Z,27.40
2018-06-28T14:31:45.589Z,26.30
2018-06-28T14:34:14.042Z,26.20
2018-06-28T14:36:42.514Z,26.00
2018-06-28T14:39:11.066Z,26.10
2018-06-28T14:41:39.607Z,25.90
2018-06-28T14:44:08.058Z,26.20
2018-06-28T14:46:36.610Z,26.20
2018-06-28T14:49:05.101Z,26.10
2018-06-28T14:51:33.534Z,25.90
2018-06-28T14:54:02.026Z,25.90
2018-06-28T14:56:30.465Z,26.40
2018-06-28T14:58:58.947Z,27.50
2018-06-28T15:01:27.386Z,27.20
2018-06-28T15:06:24.265Z,26.20
2018-06-28T15:08:52.714Z,29.20
2018-06-28T15:11:21.159Z,30.60
2018-06-28T15:13:49.661Z,32.10
2018-06-28T15:16:18.080Z,30.70
2018-06-28T15:18:46.545Z,29.10
2018-06-28T15:26:11.293Z,29.50
2018-06-28T15:28:39.797Z,30.20
2018-06-28T15:31:08.361Z,28.50
2018-06-28T15:33:36.830Z,27.90
2018-06-28T15:36:05.300Z,27.80
2018-06-28T15:38:33.790Z,28.10
2018-06-28T15:41:02.467Z,28.40
2018-06-28T15:43:30.912Z,28.00
2018-06-28T15:45:59.375Z,26.90
2018-06-28T15:48:27.882Z,26.60
2018-06-28T15:51:04.025Z,26.50
2018-06-28T15:53:32.500Z,26.40
2018-06-28T15:56:00.933Z,26.20
2018-06-28T15:58:29.370Z,25.90
2018-06-28T16:00:57.840Z,25.60
2018-06-28T16:03:26.273Z,25.40
2018-06-28T16:05:54.722Z,25.20
2018-06-28T16:08:23.190Z,24.90
2018-06-28T16:10:51.667Z,24.90
2018-06-28T16:13:20.149Z,24.90
2018-06-28T16:15:48.601Z,24.80
2018-06-28T16:18:17.082Z,24.70
2018-06-28T16:20:45.573Z,24.60
2018-06-28T16:23:14.024Z,24.50
2018-06-28T16:25:42.502Z,24.50
2018-06-28T16:28:12.580Z,24.40
2018-06-28T16:30:41.103Z,24.50
2018-06-28T16:33:09.586Z,24.40
2018-06-28T16:35:38.042Z,24.50
2018-06-28T16:38:06.478Z,24.60
2018-06-28T16:40:34.970Z,24.70
2018-06-28T16:43:03.422Z,24.70
2018-06-28T16:45:32.150Z,24.80
2018-06-28T16:50:28.757Z,24.70
2018-06-28T16:52:57.213Z,24.60
2018-06-28T16:57:53.828Z,24.40
2018-06-28T17:00:22.230Z,24.30
2018-06-28T17:02:50.689Z,24.30
2018-06-28T17:05:19.169Z,24.30
2018-06-28T17:07:47.728Z,24.30
2018-06-28T17:10:16.129Z,24.30
2018-06-28T17:12:44.582Z,24.40
2018-06-28T17:15:13.050Z,24.50
2018-06-28T17:17:41.982Z,24.50
2018-06-28T17:20:10.545Z,24.40
2018-06-28T17:22:38.966Z,24.20
2018-06-28T17:27:35.777Z,24.40
2018-06-28T17:30:05.677Z,24.40
2018-06-28T17:32:34.137Z,24.20
2018-06-28T17:35:02.580Z,24.00
2018-06-28T17:37:31.090Z,24.00
2018-06-28T17:39:59.540Z,23.80
2018-06-28T17:42:28.018Z,23.80
2018-06-28T17:44:56.489Z,23.70
2018-06-28T17:47:24.940Z,23.70
2018-06-28T17:49:53.470Z,23.70
2018-06-28T17:52:21.926Z,23.70
2018-06-28T17:54:50.375Z,23.60
2018-06-28T17:57:18.834Z,23.70
2018-06-28T17:59:49.770Z,23.70
2018-06-28T18:04:46.374Z,23.70
2018-06-28T18:07:14.813Z,23.60
2018-06-28T18:09:43.260Z,23.60
2018-06-28T18:12:11.697Z,23.60
2018-06-28T18:14:40.146Z,23.40
2018-06-28T18:17:08.608Z,23.30
2018-06-28T18:19:37.085Z,23.30
2018-06-28T18:22:05.594Z,23.30
2018-06-28T18:24:34.134Z,23.20
2018-06-28T18:27:02.608Z,23.10
2018-06-28T18:29:31.093Z,23.10
2018-06-28T18:31:59.567Z,23.00
2018-06-28T18:34:28.032Z,23.00
2018-06-28T18:36:56.491Z,22.90
2018-06-28T18:39:24.965Z,22.90
2018-06-28T18:41:53.463Z,22.70
2018-06-28T18:44:21.902Z,22.60
2018-06-28T18:46:50.370Z,22.50
2018-06-28T18:49:18.818Z,22.40
2018-06-28T18:51:47.271Z,22.40
2018-06-28T18:54:15.690Z,22.30
2018-06-28T18:56:44.203Z,22.30
2018-06-28T18:59:12.655Z,22.40
2018-06-28T19:01:41.128Z,22.30
2018-06-28T19:04:09.785Z,22.30
2018-06-28T19:06:38.281Z,22.30
2018-06-28T19:09:09.523Z,22.30
2018-06-28T19:11:37.980Z,22.30
2018-06-28T19:14:12.035Z,22.30
2018-06-28T19:16:45.790Z,22.40
2018-06-28T19:19:14.257Z,22.40
2018-06-28T19:21:48.093Z,22.40
2018-06-28T19:24:17.010Z,22.50
2018-06-28T19:26:45.438Z,22.50
2018-06-28T19:29:19.267Z,22.50
2018-06-28T19:31:53.030Z,22.40
2018-06-28T19:34:21.482Z,22.40
2018-06-28T19:36:49.935Z,22.30
2018-06-28T19:39:23.875Z,22.30
2018-06-28T19:41:57.413Z,22.20
2018-06-28T19:44:25.876Z,22.20
2018-06-28T19:46:54.304Z,22.10
2018-06-28T19:49:28.119Z,22.20
2018-06-28T19:52:01.904Z,22.20
2018-06-28T19:54:30.397Z,22.20
2018-06-28T19:56:58.850Z,22.20
2018-06-28T19:59:27.310Z,22.30
2018-06-28T20:02:01.061Z,22.30
2018-06-28T20:04:34.856Z,22.30
2018-06-28T20:07:03.326Z,22.30
2018-06-28T20:09:32.946Z,22.20
2018-06-28T20:12:01.470Z,22.10
2018-06-28T20:14:35.296Z,22.10
2018-06-28T20:17:09.157Z,21.90
2018-06-28T20:19:43.073Z,21.90
2018-06-28T20:22:11.585Z,21.80
2018-06-28T20:24:40.125Z,21.80
2018-06-28T20:27:13.892Z,21.70
2018-06-28T20:29:47.726Z,21.50
2018-06-28T20:32:21.645Z,21.50
2018-06-28T20:34:50.176Z,21.50
2018-06-28T20:37:19.422Z,21.40
2018-06-28T20:39:47.942Z,21.30
2018-06-28T20:42:16.511Z,21.30
2018-06-28T20:44:45.043Z,21.20
2018-06-28T20:47:13.572Z,21.10
2018-06-28T20:49:42.187Z,21.10
2018-06-28T20:52:10.634Z,21.00
2018-06-28T20:54:39.205Z,20.90
2018-06-28T20:57:07.897Z,20.90
2018-06-28T20:59:36.346Z,20.90
2018-06-28T21:02:04.808Z,20.80
2018-06-28T21:04:33.315Z,20.70
2018-06-28T21:07:02.392Z,20.70
2018-06-28T21:09:30.870Z,20.70
2018-06-28T21:11:59.340Z,20.70
2018-06-28T21:14:27.800Z,20.70
2018-06-28T21:16:56.454Z,20.70
2018-06-28T21:19:24.888Z,20.60
2018-06-28T21:21:53.351Z,20.60
2018-06-28T21:26:49.946Z,20.60
2018-06-28T21:29:18.666Z,20.50
2018-06-28T21:31:47.128Z,20.50
2018-06-28T21:34:15.597Z,20.40
2018-06-28T21:36:44.268Z,20.40
2018-06-28T21:39:12.935Z,20.40
2018-06-28T21:41:41.487Z,20.40
2018-06-28T21:44:09.921Z,20.30
2018-06-28T21:46:38.372Z,20.30
2018-06-28T21:49:06.866Z,20.30
2018-06-28T21:51:35.407Z,20.20
2018-06-28T21:54:03.894Z,20.20
2018-06-28T21:56:32.347Z,20.20
2018-06-28T21:59:00.849Z,20.20
2018-06-28T22:01:29.288Z,20.10
2018-06-28T22:03:57.732Z,20.10
2018-06-28T22:08:54.366Z,20.10
2018-06-28T22:11:22.808Z,20.10
2018-06-28T22:13:51.253Z,20.00
2018-06-28T22:16:19.732Z,20.10
2018-06-28T22:18:48.154Z,20.00
2018-06-28T22:21:16.609Z,19.90
2018-06-28T22:23:45.074Z,19.80
2018-06-28T22:26:13.553Z,19.80
2018-06-28T22:28:42.010Z,19.80
2018-06-28T22:31:10.469Z,19.80
2018-06-28T22:33:38.924Z,19.70
2018-06-28T22:36:07.406Z,19.60
2018-06-28T22:38:35.833Z,19.60
2018-06-28T22:43:32.412Z,19.60
2018-06-28T22:46:00.869Z,19.60
2018-06-28T22:48:29.301Z,19.50
2018-06-28T22:50:57.767Z,19.50
2018-06-28T22:53:26.235Z,19.50
2018-06-28T22:55:54.656Z,19.50
2018-06-28T22:58:23.131Z,19.50
2018-06-28T23:00:51.591Z,19.40
2018-06-28T23:03:20.049Z,19.40
2018-06-28T23:05:48.981Z,19.30
2018-06-28T23:08:17.474Z,19.30
2018-06-28T23:10:45.913Z,19.20
2018-06-28T23:13:15.315Z,19.20
2018-06-28T23:15:43.739Z,19.20
2018-06-28T23:18:12.199Z,19.10
2018-06-28T23:20:40.634Z,19.10
2018-06-28T23:23:09.110Z,19.00
2018-06-28T23:25:37.542Z,19.10
2018-06-28T23:28:06.022Z,19.10
2018-06-28T23:30:34.470Z,19.10
2018-06-28T23:33:03.019Z,19.10
2018-06-28T23:35:31.395Z,19.10
2018-06-28T23:37:59.818Z,19.20
2018-06-28T23:40:28.265Z,19.10
2018-06-28T23:45:24.825Z,19.00
2018-06-28T23:47:53.260Z,19.00
2018-06-28T23:50:21.713Z,18.80
2018-06-28T23:52:50.149Z,18.80
2018-06-28T23:57:46.748Z,18.60
